Time,TemperatureF,DewpointF,PressureIn,WindDirection,WindDirectionDegrees,WindSpeedMPH,WindSpeedGustMPH,Humidity,HourlyPrecipIn,Conditions,Clouds,dailyrainin,SoftwareType,DateUTC
2013-05-30 00:01:00,59.9,57.9,30.08,SW,234,9.0,12.0,93,0.00,,,0.00,VWS V12.08,2013-05-30 04:01:00,
2013-05-30 00:02:00,59.9,57.9,30.08,SW,217,8.0,11.0,93,0.00,,,0.00,VWS V12.08,2013-05-30 04:02:00,
2013-05-30 00:12:00,60.0,58.0,30.08,SW,227,10.0,12.0,93,0.00,,,0.00,VWS V12.08,2013-05-30 04:12:00,
2013-05-30 00:22:00,60.2,58.5,30.08,WSW,244,10.0,13.0,94,0.00,,,0.00,VWS V12.08,2013-05-30 04:22:00,
2013-05-30 00:31:00,60.2,58.2,30.08,SW,227,5.0,13.0,93,0.00,,,0.00,VWS V12.08,2013-05-30 04:31:00,
2013-05-30 00:32:00,60.2,58.2,30.08,SSW,211,13.0,13.0,93,0.00,,,0.00,VWS V12.08,2013-05-30 04:32:00,
2013-05-30 00:42:00,60.0,58.0,30.08,SSW,206,11.0,13.0,93,0.00,,,0.00,VWS V12.08,2013-05-30 04:42:00,
2013-05-30 00:46:00,60.0,58.3,30.08,SW,225,5.0,13.0,94,0.00,,,0.00,VWS V12.08,2013-05-30 04:46:00,
2013-05-30 00:52:00,60.1,58.4,30.08,SW,215,6.0,13.0,94,0.00,,,0.00,VWS V12.08,2013-05-30 04:52:00,
2013-05-30 01:01:00,60.1,58.4,30.08,SW,221,6.0,13.0,94,0.00,,,0.00,VWS V12.08,2013-05-30 05:01:00,
2013-05-30 01:02:00,60.1,58.4,30.08,SW,217,6.0,7.0,94,0.00,,,0.00,VWS V12.08,2013-05-30 05:02:00,
2013-05-30 01:12:00,59.9,58.2,30.08,SSW,213,9.0,12.0,94,0.00,,,0.00,VWS V12.08,2013-05-30 05:12:00,
2013-05-30 01:16:00,59.3,57.3,30.08,SW,226,7.0,12.0,93,0.00,,,0.00,VWS V12.08,2013-05-30 05:16:00,
2013-05-30 01:22:00,59.5,57.8,30.08,SW,223,9.0,12.0,94,0.00,,,0.00,VWS V12.08,2013-05-30 05:22:00,
2013-05-30 01:31:00,59.8,58.1,30.08,SW,221,6.0,12.0,94,0.00,,,0.00,VWS V12.08,2013-05-30 05:31:00,
2013-05-30 01:42:00,59.8,58.1,30.08,WSW,237,10.0,11.0,94,0.00,,,0.00,VWS V12.08,2013-05-30 05:42:00,
2013-05-30 01:46:00,60.0,58.3,30.08,SW,219,4.0,11.0,94,0.00,,,0.00,VWS V12.08,2013-05-30 05:46:00,
2013-05-30 01:52:00,60.2,58.5,30.08,SW,226,4.0,9.0,94,0.00,,,0.00,VWS V12.08,2013-05-30 05:52:00,
2013-05-30 02:01:00,60.0,58.3,30.08,SW,225,2.0,9.0,94,0.00,,,0.00,VWS V12.08,2013-05-30 06:01:00,
2013-05-30 02:12:00,59.3,57.3,30.09,WSW,246,3.0,6.0,93,0.00,,,0.00,VWS V12.08,2013-05-30 06:12:00,
2013-05-30 02:16:00,59.2,57.5,30.09,SW,234,4.0,7.0,94,0.00,,,0.00,VWS V12.08,2013-05-30 06:16:00,
2013-05-30 02:22:00,58.9,56.9,30.09,WSW,237,3.0,9.0,93,0.00,,,0.00,VWS V12.08,2013-05-30 06:22:00,
2013-05-30 02:31:00,59.0,57.3,30.09,SW,236,4.0,9.0,94,0.00,,,0.00,VWS V12.08,2013-05-30 06:31:00,
2013-05-30 02:32:00,58.9,56.9,30.09,SW,236,2.0,4.0,93,0.00,,,0.00,VWS V12.08,2013-05-30 06:32:00,
2013-05-30 02:42:00,58.1,56.4,30.09,SW,229,7.0,7.0,94,0.00,,,0.00,VWS V12.08,2013-05-30 06:42:00,
2013-05-30 02:46:00,58.0,56.3,30.09,SW,214,7.0,9.0,94,0.00,,,0.00,VWS V12.08,2013-05-30 06:46:00,
2013-05-30 02:52:00,58.0,56.3,30.09,SW,219,7.0,9.0,94,0.00,,,0.00,VWS V12.08,2013-05-30 06:52:00,
2013-05-30 03:01:00,58.6,56.9,30.09,SW,219,6.0,9.0,94,0.00,,,0.00,VWS V12.08,2013-05-30 07:01:00,
2013-05-30 03:02:00,58.6,56.9,30.09,SW,219,5.0,9.0,94,0.00,,,0.00,VWS V12.08,2013-05-30 07:02:00,
2013-05-30 03:12:00,58.5,56.8,30.09,SW,215,7.0,10.0,94,0.00,,,0.00,VWS V12.08,2013-05-30 07:12:00,
2013-05-30 03:16:00,58.6,56.9,30.09,SSW,211,11.0,11.0,94,0.00,,,0.00,VWS V12.08,2013-05-30 07:16:00,
2013-05-30 03:22:00,59.2,57.8,30.09,SW,215,7.0,11.0,95,0.00,,,0.00,VWS V12.08,2013-05-30 07:22:00,
2013-05-30 03:31:00,59.3,57.6,30.09,SW,225,3.0,11.0,94,0.00,,,0.00,VWS V12.08,2013-05-30 07:31:00,
2013-05-30 03:32:00,59.3,57.6,30.09,WSW,243,4.0,8.0,94,0.00,,,0.00,VWS V12.08,2013-05-30 07:32:00,
2013-05-30 03:42:00,59.3,57.6,30.09,SW,230,5.0,9.0,94,0.00,,,0.00,VWS V12.08,2013-05-30 07:42:00,
2013-05-30 03:46:00,59.5,58.1,30.09,SW,234,8.0,9.0,95,0.00,,,0.00,VWS V12.08,2013-05-30 07:46:00,
2013-05-30 03:52:00,59.3,57.6,30.09,SW,227,8.0,10.0,94,0.00,,,0.00,VWS V12.08,2013-05-30 07:52:00,
2013-05-30 04:01:00,60.9,59.8,30.09,SW,232,3.0,10.0,96,0.00,,,0.00,VWS V12.08,2013-05-30 08:01:00,
2013-05-30 04:12:00,58.7,57.0,30.09,SW,225,5.0,10.0,94,0.00,,,0.00,VWS V12.08,2013-05-30 08:12:00,
2013-05-30 04:16:00,58.5,56.8,30.09,SW,219,5.0,10.0,94,0.00,,,0.00,VWS V12.08,2013-05-30 08:16:00,
2013-05-30 04:22:00,59.0,57.6,30.09,SW,232,4.0,7.0,95,0.00,,,0.00,VWS V12.08,2013-05-30 08:22:00,
2013-05-30 04:31:00,59.4,58.0,30.09,SSW,200,6.0,8.0,95,0.00,,,0.00,VWS V12.08,2013-05-30 08:31:00,
2013-05-30 04:32:00,59.4,58.0,30.09,SW,222,7.0,9.0,95,0.00,,,0.00,VWS V12.08,2013-05-30 08:32:00,
2013-05-30 04:42:00,59.9,58.5,30.09,SW,223,5.0,12.0,95,0.00,,,0.00,VWS V12.08,2013-05-30 08:42:00,
2013-05-30 04:46:00,60.0,58.3,30.09,SW,232,7.0,12.0,94,0.00,,,0.00,VWS V12.08,2013-05-30 08:46:00,
2013-05-30 04:52:00,60.4,59.0,30.09,SW,218,12.0,12.0,95,0.00,,,0.00,VWS V12.08,2013-05-30 08:52:00,
2013-05-30 05:01:00,60.6,58.9,30.09,WSW,244,9.0,13.0,94,0.00,,,0.00,VWS V12.08,2013-05-30 09:01:00,
2013-05-30 05:02:00,60.7,59.3,30.09,WSW,248,9.0,9.0,95,0.00,,,0.00,VWS V12.08,2013-05-30 09:02:00,
2013-05-30 05:12:00,62.4,61.2,30.09,SW,221,6.0,10.0,96,0.00,,,0.00,VWS V12.08,2013-05-30 09:12:00,
2013-05-30 05:16:00,61.8,60.4,30.09,SW,228,9.0,10.0,95,0.00,,,0.00,VWS V12.08,2013-05-30 09:16:00,
2013-05-30 05:22:00,62.4,60.7,30.09,SW,225,6.0,10.0,94,0.00,,,0.00,VWS V12.08,2013-05-30 09:22:00,
2013-05-30 05:31:00,61.1,59.1,30.09,SW,235,6.0,11.0,93,0.00,,,0.00,VWS V12.08,2013-05-30 09:31:00,
2013-05-30 05:32:00,60.7,58.7,30.09,WSW,240,3.0,7.0,93,0.00,,,0.00,VWS V12.08,2013-05-30 09:32:00,
2013-05-30 05:42:00,60.4,59.0,30.10,WSW,240,7.0,9.0,95,0.00,,,0.00,VWS V12.08,2013-05-30 09:42:00,
2013-05-30 05:52:00,62.0,60.6,30.10,SW,234,5.0,8.0,95,0.00,,,0.00,VWS V12.08,2013-05-30 09:52:00,
2013-05-30 06:01:00,61.3,59.3,30.10,WSW,242,5.0,8.0,93,0.00,,,0.00,VWS V12.08,2013-05-30 10:01:00,
2013-05-30 06:12:00,59.8,57.8,30.11,SW,232,6.0,7.0,93,0.00,,,0.00,VWS V12.08,2013-05-30 10:12:00,
2013-05-30 06:16:00,59.4,57.7,30.11,SW,234,6.0,9.0,94,0.00,,,0.00,VWS V12.08,2013-05-30 10:16:00,
2013-05-30 06:22:00,59.9,58.2,30.11,SW,230,5.0,11.0,94,0.00,,,0.00,VWS V12.08,2013-05-30 10:22:00,
2013-05-30 06:31:00,60.0,58.3,30.11,SW,226,5.0,11.0,94,0.00,,,0.00,VWS V12.08,2013-05-30 10:31:00,
2013-05-30 06:32:00,60.0,58.3,30.11,SW,221,5.0,9.0,94,0.00,,,0.00,VWS V12.08,2013-05-30 10:32:00,
2013-05-30 06:42:00,60.3,58.6,30.11,SW,227,5.0,11.0,94,0.00,,,0.00,VWS V12.08,2013-05-30 10:42:00,
2013-05-30 06:52:00,60.6,58.9,30.11,WSW,238,6.0,11.0,94,0.00,,,0.00,VWS V12.08,2013-05-30 10:52:00,
2013-05-30 07:01:00,60.7,59.0,30.11,SW,221,9.0,11.0,94,0.00,,,0.00,VWS V12.08,2013-05-30 11:01:00,
2013-05-30 07:02:00,60.6,58.9,30.12,SW,216,6.0,9.0,94,0.00,,,0.00,VWS V12.08,2013-05-30 11:02:00,
2013-05-30 07:12:00,60.7,59.0,30.12,SW,220,6.0,10.0,94,0.00,,,0.00,VWS V12.08,2013-05-30 11:12:00,
2013-05-30 07:16:00,60.6,58.9,30.12,SSW,211,10.0,12.0,94,0.00,,,0.00,VWS V12.08,2013-05-30 11:16:00,
2013-05-30 07:22:00,61.1,59.4,30.12,SSW,212,9.0,10.0,94,0.00,,,0.00,VWS V12.08,2013-05-30 11:22:00,
2013-05-30 07:31:00,61.5,59.8,30.12,SW,219,9.0,11.0,94,0.00,,,0.00,VWS V12.08,2013-05-30 11:31:00,
2013-05-30 07:32:00,61.5,59.8,30.12,SW,217,5.0,11.0,94,0.00,,,0.00,VWS V12.08,2013-05-30 11:32:00,
2013-05-30 07:42:00,61.8,59.8,30.12,SW,217,9.0,11.0,93,0.00,,,0.00,VWS V12.08,2013-05-30 11:42:00,
2013-05-30 07:46:00,62.0,60.3,30.12,SSW,213,10.0,12.0,94,0.00,,,0.00,VWS V12.08,2013-05-30 11:46:00,
2013-05-30 07:52:00,62.1,60.1,30.12,SW,222,7.0,11.0,93,0.00,,,0.00,VWS V12.08,2013-05-30 11:52:00,
2013-05-30 08:01:00,62.6,60.5,30.12,SW,220,7.0,11.0,93,0.00,,,0.00,VWS V12.08,2013-05-30 12:01:00,
2013-05-30 08:02:00,62.6,60.5,30.12,SSW,210,7.0,8.0,93,0.00,,,0.00,VWS V12.08,2013-05-30 12:02:00,
2013-05-30 08:12:00,63.2,61.2,30.12,SW,215,11.0,12.0,93,0.00,,,0.00,VWS V12.08,2013-05-30 12:12:00,
2013-05-30 08:16:00,63.1,60.7,30.12,SSW,202,9.0,12.0,92,0.00,,,0.00,VWS V12.08,2013-05-30 12:16:00,
2013-05-30 08:22:00,63.2,60.8,30.12,SW,216,11.0,12.0,92,0.00,,,0.00,VWS V12.08,2013-05-30 12:22:00,
2013-05-30 08:31:00,63.6,61.2,30.13,SW,232,9.0,12.0,92,0.00,,,0.00,VWS V12.08,2013-05-30 12:31:00,
2013-05-30 08:32:00,63.6,61.2,30.12,WSW,245,6.0,10.0,92,0.00,,,0.00,VWS V12.08,2013-05-30 12:32:00,
2013-05-30 08:42:00,64.3,61.9,30.13,SW,223,8.0,11.0,92,0.00,,,0.00,VWS V12.08,2013-05-30 12:42:00,
2013-05-30 08:46:00,64.3,61.6,30.13,SSW,211,10.0,11.0,91,0.00,,,0.00,VWS V12.08,2013-05-30 12:46:00,
2013-05-30 08:52:00,64.3,61.6,30.13,SSW,213,8.0,12.0,91,0.00,,,0.00,VWS V12.08,2013-05-30 12:52:00,
2013-05-30 09:01:00,65.7,63.0,30.13,West,261,10.0,13.0,91,0.00,,,0.00,VWS V12.08,2013-05-30 13:01:00,
2013-05-30 09:12:00,71.1,68.7,30.13,NW,309,13.0,14.0,92,0.00,,,0.00,VWS V12.08,2013-05-30 13:12:00,
2013-05-30 09:16:00,73.1,70.0,30.13,WNW,290,10.0,17.0,90,0.00,,,0.00,VWS V12.08,2013-05-30 13:16:00,
2013-05-30 09:22:00,74.7,70.6,30.13,WNW,292,8.0,18.0,87,0.00,,,0.00,VWS V12.08,2013-05-30 13:22:00,
2013-05-30 09:31:00,76.3,70.4,30.13,West,261,6.0,18.0,82,0.00,,,0.00,VWS V12.08,2013-05-30 13:31:00,
2013-05-30 09:32:00,76.4,70.5,30.13,West,263,10.0,10.0,82,0.00,,,0.00,VWS V12.08,2013-05-30 13:32:00,
2013-05-30 09:42:00,77.9,70.9,30.13,West,274,5.0,17.0,79,0.00,,,0.00,VWS V12.08,2013-05-30 13:42:00,
2013-05-30 09:46:00,78.3,70.9,30.13,WNW,302,6.0,17.0,78,0.00,,,0.00,VWS V12.08,2013-05-30 13:46:00,
2013-05-30 09:52:00,78.7,70.9,30.13,West,259,9.0,18.0,77,0.00,,,0.00,VWS V12.08,2013-05-30 13:52:00,
2013-05-30 10:01:00,79.5,70.5,30.12,WNW,284,9.0,18.0,74,0.00,,,0.00,VWS V12.08,2013-05-30 14:01:00,
2013-05-30 10:02:00,79.6,71.0,30.12,West,263,10.0,11.0,75,0.00,,,0.00,VWS V12.08,2013-05-30 14:02:00,
2013-05-30 10:12:00,80.1,70.7,30.12,WSW,248,4.0,13.0,73,0.00,,,0.00,VWS V12.08,2013-05-30 14:12:00,
2013-05-30 10:22:00,80.6,71.2,30.12,WSW,258,10.0,15.0,73,0.00,,,0.00,VWS V12.08,2013-05-30 14:22:00,
2013-05-30 10:31:00,81.4,71.9,30.12,West,262,8.0,15.0,73,0.00,,,0.00,VWS V12.08,2013-05-30 14:31:00,
2013-05-30 10:32:00,81.5,72.0,30.12,West,259,6.0,8.0,73,0.00,,,0.00,VWS V12.08,2013-05-30 14:32:00,
2013-05-30 10:42:00,81.8,72.3,30.12,WNW,301,7.0,13.0,73,0.00,,,0.00,VWS V12.08,2013-05-30 14:42:00,
2013-05-30 10:46:00,82.1,72.2,30.12,West,280,6.0,13.0,72,0.00,,,0.00,VWS V12.08,2013-05-30 14:46:00,
2013-05-30 10:52:00,82.0,69.5,30.12,SSW,196,13.0,13.0,66,0.00,,,0.00,VWS V12.08,2013-05-30 14:52:00,
2013-05-30 11:01:00,72.1,61.8,30.12,SSW,211,8.0,14.0,70,0.00,,,0.00,VWS V12.08,2013-05-30 15:01:00,
2013-05-30 11:02:00,71.6,61.3,30.12,SSW,204,9.0,11.0,70,0.00,,,0.00,VWS V12.08,2013-05-30 15:02:00,
2013-05-30 11:12:00,68.8,61.3,30.12,SSW,211,9.0,12.0,77,0.00,,,0.00,VWS V12.08,2013-05-30 15:12:00,
2013-05-30 11:16:00,68.4,61.3,30.12,SSW,212,9.0,12.0,78,0.00,,,0.00,VWS V12.08,2013-05-30 15:16:00,
2013-05-30 11:22:00,68.4,61.6,30.12,SSW,207,9.0,13.0,79,0.00,,,0.00,VWS V12.08,2013-05-30 15:22:00,
2013-05-30 11:31:00,68.3,61.5,30.12,SSW,206,7.0,13.0,79,0.00,,,0.00,VWS V12.08,2013-05-30 15:31:00,
2013-05-30 11:32:00,68.3,61.5,30.12,SSW,206,12.0,12.0,79,0.00,,,0.00,VWS V12.08,2013-05-30 15:32:00,
2013-05-30 11:42:00,68.5,61.7,30.12,SSW,193,11.0,13.0,79,0.00,,,0.00,VWS V12.08,2013-05-30 15:42:00,
2013-05-30 11:52:00,68.7,61.9,30.12,SSW,209,10.0,13.0,79,0.00,,,0.00,VWS V12.08,2013-05-30 15:52:00,
2013-05-30 12:01:00,68.7,61.9,30.12,SSW,213,11.0,13.0,79,0.00,,,0.00,VWS V12.08,2013-05-30 16:01:00,
2013-05-30 12:02:00,68.7,61.9,30.12,SSW,202,9.0,13.0,79,0.00,,,0.00,VWS V12.08,2013-05-30 16:02:00,
2013-05-30 12:12:00,68.6,61.8,30.12,SSW,206,11.0,14.0,79,0.00,,,0.00,VWS V12.08,2013-05-30 16:12:00,
2013-05-30 12:16:00,68.8,62.0,30.12,SSW,208,10.0,14.0,79,0.00,,,0.00,VWS V12.08,2013-05-30 16:16:00,
2013-05-30 12:22:00,68.9,62.1,30.12,SSW,205,7.0,12.0,79,0.00,,,0.00,VWS V12.08,2013-05-30 16:22:00,
2013-05-30 12:31:00,69.0,62.2,30.12,SSW,194,12.0,13.0,79,0.00,,,0.00,VWS V12.08,2013-05-30 16:31:00,
2013-05-30 12:42:00,68.6,61.8,30.12,SSW,192,10.0,13.0,79,0.00,,,0.00,VWS V12.08,2013-05-30 16:42:00,
2013-05-30 12:52:00,68.9,62.1,30.12,SSW,212,12.0,14.0,79,0.00,,,0.00,VWS V12.08,2013-05-30 16:52:00,
2013-05-30 13:01:00,69.2,62.1,30.12,SSW,201,11.0,15.0,78,0.00,,,0.00,VWS V12.08,2013-05-30 17:01:00,
2013-05-30 13:02:00,69.2,62.1,30.12,SSW,195,11.0,12.0,78,0.00,,,0.00,VWS V12.08,2013-05-30 17:02:00,
2013-05-30 13:12:00,69.3,62.2,30.11,SSW,202,11.0,16.0,78,0.00,,,0.00,VWS V12.08,2013-05-30 17:12:00,
2013-05-30 13:16:00,69.6,62.4,30.11,SSW,208,14.0,16.0,78,0.00,,,0.00,VWS V12.08,2013-05-30 17:16:00,
2013-05-30 13:22:00,69.8,62.3,30.12,SSW,212,12.0,15.0,77,0.00,,,0.00,VWS V12.08,2013-05-30 17:22:00,
2013-05-30 13:31:00,69.8,62.3,30.11,SSW,199,11.0,16.0,77,0.00,,,0.00,VWS V12.08,2013-05-30 17:31:00,
2013-05-30 13:32:00,69.7,62.2,30.11,SSW,198,11.0,14.0,77,0.00,,,0.00,VWS V12.08,2013-05-30 17:32:00,
2013-05-30 13:42:00,69.5,62.0,30.11,SSW,200,12.0,16.0,77,0.00,,,0.00,VWS V12.08,2013-05-30 17:42:00,
2013-05-30 13:46:00,69.4,62.2,30.11,SSW,211,11.0,16.0,78,0.00,,,0.00,VWS V12.08,2013-05-30 17:46:00,
2013-05-30 13:52:00,69.5,62.0,30.11,SSW,209,13.0,14.0,77,0.00,,,0.00,VWS V12.08,2013-05-30 17:52:00,
2013-05-30 14:01:00,69.6,62.4,30.11,SSW,204,11.0,15.0,78,0.00,,,0.00,VWS V12.08,2013-05-30 18:01:00,
2013-05-30 14:02:00,69.7,62.5,30.11,SSW,205,12.0,14.0,78,0.00,,,0.00,VWS V12.08,2013-05-30 18:02:00,
2013-05-30 14:12:00,70.3,62.8,30.10,SW,217,16.0,16.0,77,0.00,,,0.00,VWS V12.08,2013-05-30 18:12:00,
2013-05-30 14:16:00,70.0,62.5,30.11,SSW,211,12.0,16.0,77,0.00,,,0.00,VWS V12.08,2013-05-30 18:16:00,
2013-05-30 14:22:00,69.7,62.2,30.10,SSW,205,15.0,15.0,77,0.00,,,0.00,VWS V12.08,2013-05-30 18:22:00,
2013-05-30 14:31:00,69.7,62.5,30.10,SSW,202,14.0,15.0,78,0.00,,,0.00,VWS V12.08,2013-05-30 18:31:00,
2013-05-30 14:32:00,69.7,62.5,30.10,SSW,200,9.0,14.0,78,0.00,,,0.00,VWS V12.08,2013-05-30 18:32:00,
2013-05-30 14:42:00,70.2,63.0,30.10,SSW,210,14.0,17.0,78,0.00,,,0.00,VWS V12.08,2013-05-30 18:42:00,
2013-05-30 14:52:00,70.5,63.0,30.10,SW,223,13.0,16.0,77,0.00,,,0.00,VWS V12.08,2013-05-30 18:52:00,
2013-05-30 15:01:00,70.6,63.0,30.09,SW,220,13.0,16.0,77,0.00,,,0.00,VWS V12.08,2013-05-30 19:01:00,
2013-05-30 15:02:00,70.6,63.0,30.09,SSW,209,15.0,15.0,77,0.00,,,0.00,VWS V12.08,2013-05-30 19:02:00,
2013-05-30 15:12:00,70.5,62.6,30.09,SSW,202,15.0,16.0,76,0.00,,,0.00,VWS V12.08,2013-05-30 19:12:00,
2013-05-30 15:16:00,70.4,62.8,30.09,SW,215,13.0,16.0,77,0.00,,,0.00,VWS V12.08,2013-05-30 19:16:00,
2013-05-30 15:22:00,70.3,62.8,30.09,SSW,204,12.0,17.0,77,0.00,,,0.00,VWS V12.08,2013-05-30 19:22:00,
2013-05-30 15:31:00,69.9,62.4,30.09,SSW,212,16.0,17.0,77,0.00,,,0.00,VWS V12.08,2013-05-30 19:31:00,
2013-05-30 15:32:00,69.8,62.3,30.08,SW,216,14.0,16.0,77,0.00,,,0.00,VWS V12.08,2013-05-30 19:32:00,
2013-05-30 15:42:00,69.2,62.1,30.08,SSW,203,17.0,20.0,78,0.00,,,0.00,VWS V12.08,2013-05-30 19:42:00,
2013-05-30 15:46:00,69.1,62.0,30.08,SW,215,11.0,20.0,78,0.00,,,0.00,VWS V12.08,2013-05-30 19:46:00,
2013-05-30 15:52:00,68.9,61.8,30.08,SSW,206,14.0,16.0,78,0.00,,,0.00,VWS V12.08,2013-05-30 19:52:00,
2013-05-30 16:01:00,68.9,62.1,30.08,SSW,211,14.0,17.0,79,0.00,,,0.00,VWS V12.08,2013-05-30 20:01:00,
2013-05-30 16:02:00,68.9,62.1,30.08,SSW,205,15.0,16.0,79,0.00,,,0.00,VWS V12.08,2013-05-30 20:02:00,
2013-05-30 16:12:00,68.8,62.0,30.07,SSW,209,13.0,19.0,79,0.00,,,0.00,VWS V12.08,2013-05-30 20:12:00,
2013-05-30 16:16:00,68.7,61.9,30.08,South,180,13.0,19.0,79,0.00,,,0.00,VWS V12.08,2013-05-30 20:16:00,
2013-05-30 16:22:00,68.4,61.6,30.08,SW,217,13.0,17.0,79,0.00,,,0.00,VWS V12.08,2013-05-30 20:22:00,
2013-05-30 16:31:00,67.9,61.5,30.08,SSW,213,16.0,18.0,80,0.00,,,0.00,VWS V12.08,2013-05-30 20:31:00,
2013-05-30 16:32:00,67.9,61.5,30.08,SW,218,14.0,16.0,80,0.00,,,0.00,VWS V12.08,2013-05-30 20:32:00,
2013-05-30 16:42:00,67.7,61.3,30.08,SSW,198,11.0,16.0,80,0.00,,,0.00,VWS V12.08,2013-05-30 20:42:00,
2013-05-30 16:46:00,67.8,61.8,30.08,SW,215,13.0,16.0,81,0.00,,,0.00,VWS V12.08,2013-05-30 20:46:00,
2013-05-30 16:52:00,67.8,61.8,30.08,SSW,204,13.0,16.0,81,0.00,,,0.00,VWS V12.08,2013-05-30 20:52:00,
2013-05-30 17:01:00,67.6,61.6,30.08,SSW,209,11.0,17.0,81,0.00,,,0.00,VWS V12.08,2013-05-30 21:01:00,
2013-05-30 17:02:00,67.6,61.6,30.08,SSW,206,12.0,13.0,81,0.00,,,0.00,VWS V12.08,2013-05-30 21:02:00,
2013-05-30 17:12:00,67.5,61.8,30.08,SSW,204,12.0,17.0,82,0.00,,,0.00,VWS V12.08,2013-05-30 21:12:00,
2013-05-30 17:22:00,67.3,61.6,30.08,SW,221,15.0,16.0,82,0.00,,,0.00,VWS V12.08,2013-05-30 21:22:00,
2013-05-30 17:31:00,67.1,61.8,30.08,SW,214,10.0,17.0,83,0.00,,,0.00,VWS V12.08,2013-05-30 21:31:00,
2013-05-30 17:32:00,67.1,61.8,30.08,South,188,13.0,14.0,83,0.00,,,0.00,VWS V12.08,2013-05-30 21:32:00,
2013-05-30 17:42:00,67.0,61.7,30.07,SSW,207,14.0,16.0,83,0.00,,,0.00,VWS V12.08,2013-05-30 21:42:00,
2013-05-30 17:52:00,67.2,62.2,30.08,SSW,211,14.0,16.0,84,0.00,,,0.00,VWS V12.08,2013-05-30 21:52:00,
2013-05-30 18:01:00,67.0,62.0,30.07,SW,219,12.0,16.0,84,0.00,,,0.00,VWS V12.08,2013-05-30 22:01:00,
2013-05-30 18:02:00,67.0,62.0,30.07,SSW,200,14.0,15.0,84,0.00,,,0.00,VWS V12.08,2013-05-30 22:02:00,
2013-05-30 18:12:00,66.5,61.5,30.07,SSW,212,11.0,17.0,84,0.00,,,0.00,VWS V12.08,2013-05-30 22:12:00,
2013-05-30 18:16:00,66.2,61.2,30.07,SSW,209,16.0,17.0,84,0.00,,,0.00,VWS V12.08,2013-05-30 22:16:00,
2013-05-30 18:22:00,65.8,61.2,30.07,SSW,211,14.0,17.0,85,0.00,,,0.00,VWS V12.08,2013-05-30 22:22:00,
2013-05-30 18:31:00,65.5,60.9,30.07,SSW,211,13.0,17.0,85,0.00,,,0.00,VWS V12.08,2013-05-30 22:31:00,
2013-05-30 18:32:00,65.5,61.2,30.07,SSW,209,11.0,13.0,86,0.00,,,0.00,VWS V12.08,2013-05-30 22:32:00,
2013-05-30 18:42:00,65.2,60.9,30.07,SSW,201,14.0,15.0,86,0.00,,,0.00,VWS V12.08,2013-05-30 22:42:00,
2013-05-30 18:52:00,65.1,61.1,30.07,SW,216,12.0,14.0,87,0.00,,,0.00,VWS V12.08,2013-05-30 22:52:00,
2013-05-30 19:01:00,64.9,60.9,30.07,SSW,205,12.0,15.0,87,0.00,,,0.00,VWS V12.08,2013-05-30 23:01:00,
2013-05-30 19:02:00,64.9,60.9,30.07,SSW,207,9.0,13.0,87,0.00,,,0.00,VWS V12.08,2013-05-30 23:02:00,
2013-05-30 19:12:00,64.5,60.5,30.07,SW,214,9.0,14.0,87,0.00,,,0.00,VWS V12.08,2013-05-30 23:12:00,
2013-05-30 19:16:00,64.5,60.9,30.07,SSW,198,10.0,14.0,88,0.00,,,0.00,VWS V12.08,2013-05-30 23:16:00,
2013-05-30 19:22:00,64.4,60.8,30.07,SW,219,10.0,13.0,88,0.00,,,0.00,VWS V12.08,2013-05-30 23:22:00,
2013-05-30 19:31:00,64.3,60.7,30.07,SW,223,9.0,14.0,88,0.00,,,0.00,VWS V12.08,2013-05-30 23:31:00,
2013-05-30 19:32:00,64.3,60.7,30.07,SW,219,7.0,10.0,88,0.00,,,0.00,VWS V12.08,2013-05-30 23:32:00,
2013-05-30 19:42:00,64.5,61.2,30.08,SW,221,9.0,12.0,89,0.00,,,0.00,VWS V12.08,2013-05-30 23:42:00,
2013-05-30 19:52:00,64.5,61.2,30.08,SW,225,10.0,13.0,89,0.00,,,0.00,VWS V12.08,2013-05-30 23:52:00,
2013-05-30 20:01:00,64.4,60.8,30.07,SW,214,5.0,13.0,88,0.00,,,0.00,VWS V12.08,2013-05-31 00:01:00,
2013-05-30 20:12:00,64.1,60.8,30.07,SW,219,10.0,13.0,89,0.00,,,0.00,VWS V12.08,2013-05-31 00:12:00,
2013-05-30 20:22:00,63.9,60.6,30.08,SSW,197,11.0,11.0,89,0.00,,,0.00,VWS V12.08,2013-05-31 00:22:00,
2013-05-30 20:31:00,63.6,60.3,30.08,SSW,209,10.0,12.0,89,0.00,,,0.00,VWS V12.08,2013-05-31 00:31:00,
2013-05-30 20:32:00,63.6,60.3,30.08,SW,215,9.0,10.0,89,0.00,,,0.00,VWS V12.08,2013-05-31 00:32:00,
2013-05-30 20:42:00,63.3,60.3,30.08,SSW,209,10.0,12.0,90,0.00,,,0.00,VWS V12.08,2013-05-31 00:42:00,
2013-05-30 20:52:00,63.2,60.2,30.08,SW,224,10.0,12.0,90,0.00,,,0.00,VWS V12.08,2013-05-31 00:52:00,
2013-05-30 21:01:00,63.0,60.0,30.08,SW,223,8.0,12.0,90,0.00,,,0.00,VWS V12.08,2013-05-31 01:01:00,
2013-05-30 21:02:00,63.0,60.0,30.08,SW,215,7.0,10.0,90,0.00,,,0.00,VWS V12.08,2013-05-31 01:02:00,
2013-05-30 21:12:00,62.8,60.1,30.08,SSW,208,8.0,12.0,91,0.00,,,0.00,VWS V12.08,2013-05-31 01:12:00,
2013-05-30 21:16:00,62.7,60.0,30.08,SSW,212,7.0,12.0,91,0.00,,,0.00,VWS V12.08,2013-05-31 01:16:00,
2013-05-30 21:22:00,62.6,59.9,30.08,SW,225,6.0,10.0,91,0.00,,,0.00,VWS V12.08,2013-05-31 01:22:00,
2013-05-30 21:31:00,62.4,59.7,30.08,SW,221,6.0,11.0,91,0.00,,,0.00,VWS V12.08,2013-05-31 01:31:00,
2013-05-30 21:32:00,62.4,59.7,30.08,SSW,211,7.0,8.0,91,0.00,,,0.00,VWS V12.08,2013-05-31 01:32:00,
2013-05-30 21:42:00,62.1,59.5,30.08,SW,219,9.0,12.0,91,0.00,,,0.00,VWS V12.08,2013-05-31 01:42:00,
2013-05-30 21:46:00,62.0,59.3,30.08,SSW,202,11.0,12.0,91,0.00,,,0.00,VWS V12.08,2013-05-31 01:46:00,
2013-05-30 21:52:00,62.0,59.3,30.08,SSW,209,10.0,11.0,91,0.00,,,0.00,VWS V12.08,2013-05-31 01:52:00,
2013-05-30 22:01:00,61.8,59.2,30.08,SSW,211,7.0,13.0,91,0.00,,,0.00,VWS V12.08,2013-05-31 02:01:00,
2013-05-30 22:02:00,61.8,59.2,30.09,SSW,211,8.0,10.0,91,0.00,,,0.00,VWS V12.08,2013-05-31 02:02:00,
2013-05-30 22:12:00,61.8,59.2,30.08,SW,216,11.0,13.0,91,0.00,,,0.00,VWS V12.08,2013-05-31 02:12:00,
2013-05-30 22:16:00,61.8,59.5,30.08,SW,215,10.0,13.0,92,0.00,,,0.00,VWS V12.08,2013-05-31 02:16:00,
2013-05-30 22:22:00,61.9,59.5,30.08,SSW,210,12.0,13.0,92,0.00,,,0.00,VWS V12.08,2013-05-31 02:22:00,
2013-05-30 22:31:00,62.1,59.8,30.08,SW,226,10.0,13.0,92,0.00,,,0.00,VWS V12.08,2013-05-31 02:31:00,
2013-05-30 22:42:00,61.9,59.5,30.09,SW,215,9.0,13.0,92,0.00,,,0.00,VWS V12.08,2013-05-31 02:42:00,
2013-05-30 22:46:00,61.8,59.5,30.09,SW,218,12.0,13.0,92,0.00,,,0.00,VWS V12.08,2013-05-31 02:46:00,
2013-05-30 22:52:00,61.5,59.2,30.09,SW,234,7.0,12.0,92,0.00,,,0.00,VWS V12.08,2013-05-31 02:52:00,
2013-05-30 23:01:00,61.5,59.2,30.09,SW,233,6.0,13.0,92,0.00,,,0.00,VWS V12.08,2013-05-31 03:01:00,
2013-05-30 23:02:00,61.5,59.2,30.09,SW,221,9.0,12.0,92,0.00,,,0.00,VWS V12.08,2013-05-31 03:02:00,
2013-05-30 23:12:00,61.2,58.9,30.09,SW,217,6.0,12.0,92,0.00,,,0.00,VWS V12.08,2013-05-31 03:12:00,
2013-05-30 23:16:00,61.0,58.7,30.09,SW,219,7.0,12.0,92,0.00,,,0.00,VWS V12.08,2013-05-31 03:16:00,
2013-05-30 23:22:00,61.0,58.7,30.09,SW,235,9.0,11.0,92,0.00,,,0.00,VWS V12.08,2013-05-31 03:22:00,
2013-05-30 23:31:00,60.8,58.5,30.09,SW,217,6.0,11.0,92,0.00,,,0.00,VWS V12.08,2013-05-31 03:31:00,
2013-05-30 23:32:00,60.7,58.4,30.09,SW,214,5.0,10.0,92,0.00,,,0.00,VWS V12.08,2013-05-31 03:32:00,
2013-05-30 23:42:00,60.1,57.8,30.09,SSW,203,9.0,11.0,92,0.00,,,0.00,VWS V12.08,2013-05-31 03:42:00,
2013-05-30 23:52:00,59.8,57.8,30.09,SW,216,7.0,10.0,93,0.00,,,0.00,VWS V12.08,2013-05-31 03:52:00,